sensor_id;sensor_type;location;lat;lon;timestamp;pressure;altitude;pressure_sealevel;temperature;humidity
47913;BME280;33676;51.006;17.180;2024-03-08T00:00:39;100956.23;;;1.21;78.57
47913;BME280;33676;51.006;17.180;2024-03-08T00:03:31;100958.67;;;1.14;78.61
47913;BME280;33676;51.006;17.180;2024-03-08T00:06:01;100957.80;;;1.08;78.61
47913;BME280;33676;51.006;17.180;2024-03-08T00:08:30;100955.05;;;1.02;78.75
47913;BME280;33676;51.006;17.180;2024-03-08T00:10:59;100955.02;;;0.98;78.71
47913;BME280;33676;51.006;17.180;2024-03-08T00:13:28;100955.78;;;0.95;78.95
47913;BME280;33676;51.006;17.180;2024-03-08T00:15:56;100959.86;;;0.91;78.75
47913;BME280;33676;51.006;17.180;2024-03-08T00:18:26;100957.23;;;0.86;78.86
47913;BME280;33676;51.006;17.180;2024-03-08T00:20:55;100959.40;;;0.82;78.99
47913;BME280;33676;51.006;17.180;2024-03-08T00:23:24;100958.61;;;0.80;79.21
47913;BME280;33676;51.006;17.180;2024-03-08T00:25:53;100954.21;;;0.77;79.39
47913;BME280;33676;51.006;17.180;2024-03-08T00:28:23;100952.73;;;0.74;79.24
47913;BME280;33676;51.006;17.180;2024-03-08T00:30:53;100952.82;;;0.71;79.48
47913;BME280;33676;51.006;17.180;2024-03-08T00:33:22;100951.34;;;0.69;79.53
47913;BME280;33676;51.006;17.180;2024-03-08T00:35:50;100946.27;;;0.64;79.63
47913;BME280;33676;51.006;17.180;2024-03-08T00:38:19;100948.74;;;0.62;79.67
47913;BME280;33676;51.006;17.180;2024-03-08T00:40:48;100948.48;;;0.58;79.88
47913;BME280;33676;51.006;17.180;2024-03-08T00:43:16;100946.16;;;0.56;79.95
47913;BME280;33676;51.006;17.180;2024-03-08T00:45:45;100949.14;;;0.54;79.78
47913;BME280;33676;51.006;17.180;2024-03-08T00:48:13;100946.17;;;0.50;80.14
47913;BME280;33676;51.006;17.180;2024-03-08T00:50:43;100944.02;;;0.47;79.94
47913;BME280;33676;51.006;17.180;2024-03-08T00:53:14;100943.92;;;0.43;79.96
47913;BME280;33676;51.006;17.180;2024-03-08T00:55:43;100938.52;;;0.40;80.31
47913;BME280;33676;51.006;17.180;2024-03-08T00:58:15;100934.45;;;0.37;80.30
47913;BME280;33676;51.006;17.180;2024-03-08T01:00:43;100927.98;;;0.35;80.52
47913;BME280;33676;51.006;17.180;2024-03-08T01:03:13;100930.10;;;0.33;80.47
47913;BME280;33676;51.006;17.180;2024-03-08T01:05:42;100928.45;;;0.29;80.62
47913;BME280;33676;51.006;17.180;2024-03-08T01:08:11;100926.29;;;0.27;80.53
47913;BME280;33676;51.006;17.180;2024-03-08T01:10:40;100924.13;;;0.24;80.43
47913;BME280;33676;51.006;17.180;2024-03-08T01:13:08;100922.80;;;0.22;80.61
47913;BME280;33676;51.006;17.180;2024-03-08T01:15:37;100921.49;;;0.19;80.74
47913;BME280;33676;51.006;17.180;2024-03-08T01:18:10;100920.52;;;0.17;80.73
47913;BME280;33676;51.006;17.180;2024-03-08T01:20:39;100918.02;;;0.14;80.62
47913;BME280;33676;51.006;17.180;2024-03-08T01:23:10;100914.33;;;0.10;80.68
47913;BME280;33676;51.006;17.180;2024-03-08T01:25:39;100914.05;;;0.07;80.70
47913;BME280;33676;51.006;17.180;2024-03-08T01:28:07;100909.69;;;0.03;80.71
47913;BME280;33676;51.006;17.180;2024-03-08T01:30:36;100907.58;;;-0.01;80.78
47913;BME280;33676;51.006;17.180;2024-03-08T01:33:05;100906.45;;;-0.04;80.79
47913;BME280;33676;51.006;17.180;2024-03-08T01:35:34;100907.36;;;-0.07;80.91
47913;BME280;33676;51.006;17.180;2024-03-08T01:38:03;100907.44;;;-0.10;81.04
47913;BME280;33676;51.006;17.180;2024-03-08T01:40:33;100904.39;;;-0.12;81.08
47913;BME280;33676;51.006;17.180;2024-03-08T01:43:25;100901.36;;;-0.14;81.08
47913;BME280;33676;51.006;17.180;2024-03-08T01:45:57;100900.92;;;-0.17;81.18
47913;BME280;33676;51.006;17.180;2024-03-08T01:48:29;100900.47;;;-0.20;81.18
47913;BME280;33676;51.006;17.180;2024-03-08T01:50:59;100899.81;;;-0.21;81.19
47913;BME280;33676;51.006;17.180;2024-03-08T01:53:29;100901.59;;;-0.23;81.27
47913;BME280;33676;51.006;17.180;2024-03-08T01:55:59;100894.27;;;-0.26;81.16
47913;BME280;33676;51.006;17.180;2024-03-08T01:58:31;100893.64;;;-0.29;81.39
47913;BME280;33676;51.006;17.180;2024-03-08T02:01:01;100896.76;;;-0.30;81.36
47913;BME280;33676;51.006;17.180;2024-03-08T02:03:32;100894.92;;;-0.32;81.63
47913;BME280;33676;51.006;17.180;2024-03-08T02:06:00;100892.88;;;-0.33;81.72
47913;BME280;33676;51.006;17.180;2024-03-08T02:08:29;100889.80;;;-0.34;81.66
47913;BME280;33676;51.006;17.180;2024-03-08T02:10:58;100891.05;;;-0.36;81.90
47913;BME280;33676;51.006;17.180;2024-03-08T02:13:27;100888.02;;;-0.38;81.90
47913;BME280;33676;51.006;17.180;2024-03-08T02:15:59;100885.15;;;-0.41;81.96
47913;BME280;33676;51.006;17.180;2024-03-08T02:18:29;100884.34;;;-0.43;81.86
47913;BME280;33676;51.006;17.180;2024-03-08T02:20:59;100882.53;;;-0.47;81.75
47913;BME280;33676;51.006;17.180;2024-03-08T02:23:28;100882.77;;;-0.50;81.81
47913;BME280;33676;51.006;17.180;2024-03-08T02:25:59;100881.80;;;-0.51;81.83
47913;BME280;33676;51.006;17.180;2024-03-08T02:28:27;100880.01;;;-0.55;81.81
47913;BME280;33676;51.006;17.180;2024-03-08T02:30:59;100877.67;;;-0.58;81.86
47913;BME280;33676;51.006;17.180;2024-03-08T02:33:28;100879.98;;;-0.61;81.91
47913;BME280;33676;51.006;17.180;2024-03-08T02:35:57;100884.27;;;-0.61;81.97
47913;BME280;33676;51.006;17.180;2024-03-08T02:38:26;100876.05;;;-0.62;82.16
47913;BME280;33676;51.006;17.180;2024-03-08T02:40:54;100876.05;;;-0.62;82.31
47913;BME280;33676;51.006;17.180;2024-03-08T02:43:23;100870.05;;;-0.63;82.31
47913;BME280;33676;51.006;17.180;2024-03-08T02:45:53;100870.55;;;-0.62;82.09
47913;BME280;33676;51.006;17.180;2024-03-08T02:48:22;100869.52;;;-0.62;82.32
47913;BME280;33676;51.006;17.180;2024-03-08T02:50:52;100867.81;;;-0.62;82.11
47913;BME280;33676;51.006;17.180;2024-03-08T02:53:20;100868.99;;;-0.61;82.21
47913;BME280;33676;51.006;17.180;2024-03-08T02:55:50;100867.98;;;-0.62;82.23
47913;BME280;33676;51.006;17.180;2024-03-08T02:58:18;100868.34;;;-0.63;82.24
47913;BME280;33676;51.006;17.180;2024-03-08T03:00:47;100862.32;;;-0.62;82.23
47913;BME280;33676;51.006;17.180;2024-03-08T03:03:16;100862.86;;;-0.63;82.19
47913;BME280;33676;51.006;17.180;2024-03-08T03:05:45;100861.16;;;-0.64;82.17
47913;BME280;33676;51.006;17.180;2024-03-08T03:08:16;100862.35;;;-0.64;82.07
47913;BME280;33676;51.006;17.180;2024-03-08T03:10:46;100861.16;;;-0.64;82.15
47913;BME280;33676;51.006;17.180;2024-03-08T03:13:15;100860.61;;;-0.63;82.18
47913;BME280;33676;51.006;17.180;2024-03-08T03:15:43;100861.31;;;-0.63;82.13
47913;BME280;33676;51.006;17.180;2024-03-08T03:18:12;100860.11;;;-0.63;82.23
47913;BME280;33676;51.006;17.180;2024-03-08T03:20:41;100859.77;;;-0.63;82.33
47913;BME280;33676;51.006;17.180;2024-03-08T03:23:11;100861.32;;;-0.64;82.32
47913;BME280;33676;51.006;17.180;2024-03-08T03:25:44;100857.52;;;-0.63;82.47
47913;BME280;33676;51.006;17.180;2024-03-08T03:28:14;100860.27;;;-0.63;82.54
47913;BME280;33676;51.006;17.180;2024-03-08T03:30:46;100857.08;;;-0.66;82.29
47913;BME280;33676;51.006;17.180;2024-03-08T03:33:15;100859.35;;;-0.68;82.33
47913;BME280;33676;51.006;17.180;2024-03-08T03:35:45;100859.20;;;-0.69;82.39
47913;BME280;33676;51.006;17.180;2024-03-08T03:38:14;100855.98;;;-0.71;82.25
47913;BME280;33676;51.006;17.180;2024-03-08T03:40:43;100862.17;;;-0.71;82.21
47913;BME280;33676;51.006;17.180;2024-03-08T03:43:13;100862.02;;;-0.72;82.13
47913;BME280;33676;51.006;17.180;2024-03-08T03:45:42;100858.77;;;-0.73;82.29
47913;BME280;33676;51.006;17.180;2024-03-08T03:48:10;100860.34;;;-0.74;82.33
47913;BME280;33676;51.006;17.180;2024-03-08T03:50:39;100860.39;;;-0.76;82.28
47913;BME280;33676;51.006;17.180;2024-03-08T03:53:09;100862.83;;;-0.78;82.14
47913;BME280;33676;51.006;17.180;2024-03-08T03:55:39;100862.88;;;-0.80;82.25
47913;BME280;33676;51.006;17.180;2024-03-08T03:58:09;100866.54;;;-0.83;82.22
47913;BME280;33676;51.006;17.180;2024-03-08T04:00:40;100868.63;;;-0.84;82.12
47913;BME280;33676;51.006;17.180;2024-03-08T04:03:09;100865.05;;;-0.86;82.13
47913;BME280;33676;51.006;17.180;2024-03-08T04:05:38;100861.14;;;-0.87;82.23
47913;BME280;33676;51.006;17.180;2024-03-08T04:08:07;100862.71;;;-0.88;82.21
47913;BME280;33676;51.006;17.180;2024-03-08T04:10:36;100861.18;;;-0.89;82.36
47913;BME280;33676;51.006;17.180;2024-03-08T04:13:05;100864.83;;;-0.91;82.55
47913;BME280;33676;51.006;17.180;2024-03-08T04:15:33;100861.61;;;-0.93;82.25
47913;BME280;33676;51.006;17.180;2024-03-08T04:18:02;100854.81;;;-0.96;82.08
47913;BME280;33676;51.006;17.180;2024-03-08T04:20:31;100852.96;;;-0.98;82.25
47913;BME280;33676;51.006;17.180;2024-03-08T04:22:59;100853.69;;;-1.00;82.41
47913;BME280;33676;51.006;17.180;2024-03-08T04:25:27;100853.54;;;-1.01;82.31
47913;BME280;33676;51.006;17.180;2024-03-08T04:27:56;100852.55;;;-1.03;82.52
47913;BME280;33676;51.006;17.180;2024-03-08T04:30:25;100853.80;;;-1.04;82.42
47913;BME280;33676;51.006;17.180;2024-03-08T04:32:54;100855.55;;;-1.05;82.34
47913;BME280;33676;51.006;17.180;2024-03-08T04:35:22;100858.67;;;-1.07;82.33
47913;BME280;33676;51.006;17.180;2024-03-08T04:37:51;100855.80;;;-1.09;82.46
47913;BME280;33676;51.006;17.180;2024-03-08T04:40:19;100855.15;;;-1.11;82.35
47913;BME280;33676;51.006;17.180;2024-03-08T04:42:48;100858.10;;;-1.13;82.33
47913;BME280;33676;51.006;17.180;2024-03-08T04:45:19;100859.17;;;-1.14;82.42
47913;BME280;33676;51.006;17.180;2024-03-08T04:47:48;100860.58;;;-1.16;82.38
47913;BME280;33676;51.006;17.180;2024-03-08T04:50:16;100858.05;;;-1.18;82.36
47913;BME280;33676;51.006;17.180;2024-03-08T04:52:46;100851.58;;;-1.20;82.45
47913;BME280;33676;51.006;17.180;2024-03-08T04:55:15;100850.42;;;-1.23;82.35
47913;BME280;33676;51.006;17.180;2024-03-08T04:57:44;100852.21;;;-1.26;82.44
47913;BME280;33676;51.006;17.180;2024-03-08T05:00:15;100852.79;;;-1.29;82.32
47913;BME280;33676;51.006;17.180;2024-03-08T05:02:43;100852.96;;;-1.30;82.63
47913;BME280;33676;51.006;17.180;2024-03-08T05:05:12;100854.52;;;-1.31;82.55
47913;BME280;33676;51.006;17.180;2024-03-08T05:07:41;100861.06;;;-1.32;82.65
47913;BME280;33676;51.006;17.180;2024-03-08T05:10:12;100855.60;;;-1.33;82.72
47913;BME280;33676;51.006;17.180;2024-03-08T05:12:40;100852.55;;;-1.35;82.72
47913;BME280;33676;51.006;17.180;2024-03-08T05:15:09;100854.60;;;-1.35;82.82
47913;BME280;33676;51.006;17.180;2024-03-08T05:17:37;100858.25;;;-1.38;82.71
47913;BME280;33676;51.006;17.180;2024-03-08T05:20:08;100857.25;;;-1.39;82.67
47913;BME280;33676;51.006;17.180;2024-03-08T05:22:40;100857.77;;;-1.40;82.59
47913;BME280;33676;51.006;17.180;2024-03-08T05:25:09;100854.37;;;-1.41;82.76
47913;BME280;33676;51.006;17.180;2024-03-08T05:27:39;100857.48;;;-1.42;82.63
47913;BME280;33676;51.006;17.180;2024-03-08T05:30:08;100854.05;;;-1.42;82.92
47913;BME280;33676;51.006;17.180;2024-03-08T05:32:43;100855.73;;;-1.41;82.99
47913;BME280;33676;51.006;17.180;2024-03-08T05:35:13;100852.64;;;-1.40;82.90
47913;BME280;33676;51.006;17.180;2024-03-08T05:37:44;100852.27;;;-1.38;83.19
47913;BME280;33676;51.006;17.180;2024-03-08T05:40:13;100851.02;;;-1.36;83.24
47913;BME280;33676;51.006;17.180;2024-03-08T05:42:45;100851.63;;;-1.32;83.48
47913;BME280;33676;51.006;17.180;2024-03-08T05:45:14;100852.58;;;-1.28;83.68
47913;BME280;33676;51.006;17.180;2024-03-08T05:47:43;100855.93;;;-1.24;83.54
47913;BME280;33676;51.006;17.180;2024-03-08T05:50:12;100857.59;;;-1.21;83.66
47913;BME280;33676;51.006;17.180;2024-03-08T05:52:40;100857.17;;;-1.18;83.45
47913;BME280;33676;51.006;17.180;2024-03-08T05:55:09;100850.77;;;-1.15;83.60
47913;BME280;33676;51.006;17.180;2024-03-08T05:57:38;100851.05;;;-1.11;83.71
47913;BME280;33676;51.006;17.180;2024-03-08T06:00:09;100859.89;;;-1.08;83.64
47913;BME280;33676;51.006;17.180;2024-03-08T06:02:44;100859.79;;;-1.03;83.81
47913;BME280;33676;51.006;17.180;2024-03-08T06:05:12;100856.59;;;-1.00;83.79
47913;BME280;33676;51.006;17.180;2024-03-08T06:07:41;100857.55;;;-0.95;83.86
47913;BME280;33676;51.006;17.180;2024-03-08T06:10:11;100864.31;;;-0.91;84.08
47913;BME280;33676;51.006;17.180;2024-03-08T06:12:41;100867.44;;;-0.85;84.09
47913;BME280;33676;51.006;17.180;2024-03-08T06:15:11;100869.38;;;-0.79;84.19
47913;BME280;33676;51.006;17.180;2024-03-08T06:17:46;100870.80;;;-0.74;84.40
47913;BME280;33676;51.006;17.180;2024-03-08T06:20:15;100868.80;;;-0.69;84.24
47913;BME280;33676;51.006;17.180;2024-03-08T06:22:44;100871.44;;;-0.63;84.33
47913;BME280;33676;51.006;17.180;2024-03-08T06:25:13;100874.75;;;-0.58;84.51
47913;BME280;33676;51.006;17.180;2024-03-08T06:27:44;100868.73;;;-0.51;84.55
47913;BME280;33676;51.006;17.180;2024-03-08T06:30:15;100870.79;;;-0.44;84.54
47913;BME280;33676;51.006;17.180;2024-03-08T06:32:44;100869.77;;;-0.37;84.77
47913;BME280;33676;51.006;17.180;2024-03-08T06:35:13;100870.67;;;-0.31;84.78
47913;BME280;33676;51.006;17.180;2024-03-08T06:37:44;100870.86;;;-0.25;84.74
47913;BME280;33676;51.006;17.180;2024-03-08T06:40:13;100872.05;;;-0.17;84.94
47913;BME280;33676;51.006;17.180;2024-03-08T06:42:42;100875.15;;;-0.10;84.95
47913;BME280;33676;51.006;17.180;2024-03-08T06:45:11;100868.45;;;-0.03;85.08
47913;BME280;33676;51.006;17.180;2024-03-08T06:47:41;100867.73;;;0.04;85.01
47913;BME280;33676;51.006;17.180;2024-03-08T06:50:10;100861.52;;;0.12;85.26
47913;BME280;33676;51.006;17.180;2024-03-08T06:52:39;100859.23;;;0.20;85.09
47913;BME280;33676;51.006;17.180;2024-03-08T06:55:08;100862.31;;;0.27;85.16
47913;BME280;33676;51.006;17.180;2024-03-08T06:57:40;100866.08;;;0.35;85.21
47913;BME280;33676;51.006;17.180;2024-03-08T07:00:09;100866.54;;;0.43;85.38
47913;BME280;33676;51.006;17.180;2024-03-08T07:02:41;100861.04;;;0.49;85.30
47913;BME280;33676;51.006;17.180;2024-03-08T07:05:10;100865.48;;;0.56;85.31
47913;BME280;33676;51.006;17.180;2024-03-08T07:07:39;100867.38;;;0.62;85.43
47913;BME280;33676;51.006;17.180;2024-03-08T07:10:09;100865.30;;;0.69;85.35
47913;BME280;33676;51.006;17.180;2024-03-08T07:12:43;100864.93;;;0.76;85.31
47913;BME280;33676;51.006;17.180;2024-03-08T07:15:21;100864.36;;;0.84;85.31
47913;BME280;33676;51.006;17.180;2024-03-08T07:17:55;100867.34;;;0.94;85.59
47913;BME280;33676;51.006;17.180;2024-03-08T07:20:24;100864.65;;;1.04;85.61
47913;BME280;33676;51.006;17.180;2024-03-08T07:22:52;100866.80;;;1.12;85.62
47913;BME280;33676;51.006;17.180;2024-03-08T07:25:22;100865.84;;;1.21;85.91
47913;BME280;33676;51.006;17.180;2024-03-08T07:27:53;100864.57;;;1.28;85.67
47913;BME280;33676;51.006;17.180;2024-03-08T07:30:25;100863.11;;;1.37;85.72
47913;BME280;33676;51.006;17.180;2024-03-08T07:33:22;100868.17;;;1.47;85.88
47913;BME280;33676;51.006;17.180;2024-03-08T07:35:51;100865.36;;;1.54;85.80
47913;BME280;33676;51.006;17.180;2024-03-08T07:38:19;100863.23;;;1.60;85.55
47913;BME280;33676;51.006;17.180;2024-03-08T07:40:49;100859.70;;;1.68;85.79
47913;BME280;33676;51.006;17.180;2024-03-08T07:43:17;100861.27;;;1.78;85.87
47913;BME280;33676;51.006;17.180;2024-03-08T07:45:46;100858.05;;;1.88;86.10
47913;BME280;33676;51.006;17.180;2024-03-08T07:48:15;100856.66;;;1.98;86.06
47913;BME280;33676;51.006;17.180;2024-03-08T07:50:44;100857.33;;;2.09;86.11
47913;BME280;33676;51.006;17.180;2024-03-08T07:53:13;100854.80;;;2.17;86.07
47913;BME280;33676;51.006;17.180;2024-03-08T07:55:42;100853.75;;;2.27;86.19
47913;BME280;33676;51.006;17.180;2024-03-08T07:58:11;100853.50;;;2.40;86.42
47913;BME280;33676;51.006;17.180;2024-03-08T08:00:41;100850.67;;;2.51;86.34
47913;BME280;33676;51.006;17.180;2024-03-08T08:03:12;100848.72;;;2.62;86.22
47913;BME280;33676;51.006;17.180;2024-03-08T08:05:42;100848.99;;;2.73;86.43
47913;BME280;33676;51.006;17.180;2024-03-08T08:08:10;100854.15;;;2.83;86.32
47913;BME280;33676;51.006;17.180;2024-03-08T08:10:40;100852.42;;;2.93;86.31
47913;BME280;33676;51.006;17.180;2024-03-08T08:13:08;100852.41;;;3.03;86.38
47913;BME280;33676;51.006;17.180;2024-03-08T08:15:37;100848.55;;;3.13;86.35
47913;BME280;33676;51.006;17.180;2024-03-08T08:18:07;100851.23;;;3.24;86.35
47913;BME280;33676;51.006;17.180;2024-03-08T08:20:38;100847.34;;;3.35;86.16
47913;BME280;33676;51.006;17.180;2024-03-08T08:23:06;100842.77;;;3.46;86.28
47913;BME280;33676;51.006;17.180;2024-03-08T08:25:35;100843.52;;;3.57;86.40
47913;BME280;33676;51.006;17.180;2024-03-08T08:28:03;100842.73;;;3.68;86.14
47913;BME280;33676;51.006;17.180;2024-03-08T08:30:33;100842.25;;;3.80;86.17
47913;BME280;33676;51.006;17.180;2024-03-08T08:33:02;100843.63;;;3.92;86.22
47913;BME280;33676;51.006;17.180;2024-03-08T08:35:31;100837.14;;;4.07;86.44
47913;BME280;33676;51.006;17.180;2024-03-08T08:38:01;100836.39;;;4.20;86.33
47913;BME280;33676;51.006;17.180;2024-03-08T08:40:34;100836.37;;;4.33;86.11
47913;BME280;33676;51.006;17.180;2024-03-08T08:43:04;100839.40;;;4.46;86.23
47913;BME280;33676;51.006;17.180;2024-03-08T08:45:33;100835.39;;;4.63;86.34
47913;BME280;33676;51.006;17.180;2024-03-08T08:48:01;100832.73;;;4.79;86.37
47913;BME280;33676;51.006;17.180;2024-03-08T08:50:30;100833.46;;;4.93;86.22
47913;BME280;33676;51.006;17.180;2024-03-08T08:52:59;100836.45;;;5.11;86.40
47913;BME280;33676;51.006;17.180;2024-03-08T08:55:27;100834.17;;;5.30;86.58
47913;BME280;33676;51.006;17.180;2024-03-08T08:57:57;100831.04;;;5.49;86.54
47913;BME280;33676;51.006;17.180;2024-03-08T09:00:26;100826.42;;;5.65;86.23
47913;BME280;33676;51.006;17.180;2024-03-08T09:02:56;100824.14;;;5.83;86.33
47913;BME280;33676;51.006;17.180;2024-03-08T09:05:27;100823.21;;;6.02;86.34
47913;BME280;33676;51.006;17.180;2024-03-08T09:07:55;100825.31;;;6.19;86.01
47913;BME280;33676;51.006;17.180;2024-03-08T09:10:24;100827.34;;;6.37;86.00
47913;BME280;33676;51.006;17.180;2024-03-08T09:12:56;100823.00;;;6.56;86.09
47913;BME280;33676;51.006;17.180;2024-03-08T09:15:24;100824.77;;;6.76;85.85
47913;BME280;33676;51.006;17.180;2024-03-08T09:17:57;100822.26;;;6.96;85.70
47913;BME280;33676;51.006;17.180;2024-03-08T09:20:27;100819.13;;;7.15;85.67
47913;BME280;33676;51.006;17.180;2024-03-08T09:22:57;100820.98;;;7.41;85.89
47913;BME280;33676;51.006;17.180;2024-03-08T09:25:26;100815.50;;;7.67;85.77
47913;BME280;33676;51.006;17.180;2024-03-08T09:27:54;100810.56;;;7.85;85.38
47913;BME280;33676;51.006;17.180;2024-03-08T09:30:23;100805.05;;;8.08;85.31
47913;BME280;33676;51.006;17.180;2024-03-08T09:32:52;100803.95;;;8.32;85.20
47913;BME280;33676;51.006;17.180;2024-03-08T09:35:23;100803.89;;;8.59;85.08
47913;BME280;33676;51.006;17.180;2024-03-08T09:37:52;100799.39;;;8.87;85.16
47913;BME280;33676;51.006;17.180;2024-03-08T09:40:22;100793.13;;;9.17;85.06
47913;BME280;33676;51.006;17.180;2024-03-08T09:42:52;100787.88;;;9.44;84.97
47913;BME280;33676;51.006;17.180;2024-03-08T09:45:21;100784.65;;;9.72;84.85
47913;BME280;33676;51.006;17.180;2024-03-08T09:47:54;100783.05;;;10.00;84.80
47913;BME280;33676;51.006;17.180;2024-03-08T09:50:23;100779.30;;;10.28;84.48
47913;BME280;33676;51.006;17.180;2024-03-08T09:52:51;100780.52;;;10.50;84.25
47913;BME280;33676;51.006;17.180;2024-03-08T09:55:21;100781.85;;;10.71;83.77
47913;BME280;33676;51.006;17.180;2024-03-08T09:57:52;100778.20;;;10.88;83.15
47913;BME280;33676;51.006;17.180;2024-03-08T10:00:43;100772.15;;;11.11;82.90
47913;BME280;33676;51.006;17.180;2024-03-08T10:03:12;100769.97;;;11.31;82.66
47913;BME280;33676;51.006;17.180;2024-03-08T10:05:43;100769.47;;;11.43;82.06
47913;BME280;33676;51.006;17.180;2024-03-08T10:08:13;100766.16;;;11.61;81.79
47913;BME280;33676;51.006;17.180;2024-03-08T10:10:41;100769.33;;;11.85;82.10
47913;BME280;33676;51.006;17.180;2024-03-08T10:13:12;100768.65;;;12.07;81.64
47913;BME280;33676;51.006;17.180;2024-03-08T10:15:43;100763.50;;;12.31;81.53
47913;BME280;33676;51.006;17.180;2024-03-08T10:18:12;100763.38;;;12.54;81.27
47913;BME280;33676;51.006;17.180;2024-03-08T10:20:41;100765.72;;;12.78;81.19
47913;BME280;33676;51.006;17.180;2024-03-08T10:23:10;100763.43;;;12.91;80.42
47913;BME280;33676;51.006;17.180;2024-03-08T10:25:39;100767.13;;;12.96;79.79
47913;BME280;33676;51.006;17.180;2024-03-08T10:28:08;100765.81;;;13.14;79.74
47913;BME280;33676;51.006;17.180;2024-03-08T10:30:36;100763.21;;;13.42;79.93
47913;BME280;33676;51.006;17.180;2024-03-08T10:33:05;100757.55;;;13.65;79.51
47913;BME280;33676;51.006;17.180;2024-03-08T10:35:35;100757.86;;;13.89;79.32
47913;BME280;33676;51.006;17.180;2024-03-08T10:38:04;100760.57;;;14.11;79.16
47913;BME280;33676;51.006;17.180;2024-03-08T10:40:38;100758.08;;;14.38;79.17
47913;BME280;33676;51.006;17.180;2024-03-08T10:43:16;100755.57;;;14.61;78.61
47913;BME280;33676;51.006;17.180;2024-03-08T10:46:15;100752.16;;;14.83;78.15
47913;BME280;33676;51.006;17.180;2024-03-08T10:48:49;100749.18;;;15.05;77.93
47913;BME280;33676;51.006;17.180;2024-03-08T10:51:19;100746.74;;;15.22;77.53
47913;BME280;33676;51.006;17.180;2024-03-08T10:53:48;100745.08;;;15.31;76.71
47913;BME280;33676;51.006;17.180;2024-03-08T10:56:19;100747.92;;;15.38;76.23
47913;BME280;33676;51.006;17.180;2024-03-08T10:58:48;100745.65;;;15.51;76.06
47913;BME280;33676;51.006;17.180;2024-03-08T11:01:17;100742.50;;;15.69;75.98
47913;BME280;33676;51.006;17.180;2024-03-08T11:03:47;100742.29;;;15.88;76.01
47913;BME280;33676;51.006;17.180;2024-03-08T11:09:32;100737.36;;;16.23;75.29
47913;BME280;33676;51.006;17.180;2024-03-08T11:15:10;100723.19;;;16.55;74.51
47913;BME280;33676;51.006;17.180;2024-03-08T11:17:48;100722.91;;;16.68;73.77
47913;BME280;33676;51.006;17.180;2024-03-08T11:20:19;100724.52;;;16.86;73.72
47913;BME280;33676;51.006;17.180;2024-03-08T11:22:54;100714.89;;;17.08;73.66
47913;BME280;33676;51.006;17.180;2024-03-08T11:25:40;100711.05;;;17.25;73.34
47913;BME280;33676;51.006;17.180;2024-03-08T11:28:22;100704.59;;;17.42;72.96
47913;BME280;33676;51.006;17.180;2024-03-08T11:33:29;100696.30;;;17.73;72.10
47913;BME280;33676;51.006;17.180;2024-03-08T11:38:48;100690.91;;;18.04;71.50
47913;BME280;33676;51.006;17.180;2024-03-08T11:41:19;100685.27;;;18.17;71.20
47913;BME280;33676;51.006;17.180;2024-03-08T11:44:04;100680.61;;;18.28;70.59
47913;BME280;33676;51.006;17.180;2024-03-08T11:46:46;100679.38;;;18.33;69.65
47913;BME280;33676;51.006;17.180;2024-03-08T11:49:38;100674.11;;;18.44;69.45
47913;BME280;33676;51.006;17.180;2024-03-08T11:52:18;100668.52;;;18.55;68.90
47913;BME280;33676;51.006;17.180;2024-03-08T11:54:54;100664.38;;;18.61;68.38
47913;BME280;33676;51.006;17.180;2024-03-08T11:57:26;100665.93;;;18.67;67.90
47913;BME280;33676;51.006;17.180;2024-03-08T11:59:58;100666.30;;;18.76;67.71
47913;BME280;33676;51.006;17.180;2024-03-08T12:02:38;100665.90;;;18.93;67.69
47913;BME280;33676;51.006;17.180;2024-03-08T12:05:44;100658.05;;;19.13;67.65
47913;BME280;33676;51.006;17.180;2024-03-08T12:08:27;100655.81;;;19.31;67.30
47913;BME280;33676;51.006;17.180;2024-03-08T12:11:08;100655.40;;;19.45;66.81
47913;BME280;33676;51.006;17.180;2024-03-08T12:13:41;100654.23;;;19.57;66.27
47913;BME280;33676;51.006;17.180;2024-03-08T12:16:27;100650.15;;;19.71;66.06
47913;BME280;33676;51.006;17.180;2024-03-08T12:19:09;100646.56;;;19.84;65.86
47913;BME280;33676;51.006;17.180;2024-03-08T12:21:41;100644.84;;;19.96;65.84
47913;BME280;33676;51.006;17.180;2024-03-08T12:24:17;100640.55;;;20.09;65.26
47913;BME280;33676;51.006;17.180;2024-03-08T12:26:48;100638.00;;;20.14;64.62
47913;BME280;33676;51.006;17.180;2024-03-08T12:29:25;100635.49;;;20.18;64.32
47913;BME280;33676;51.006;17.180;2024-03-08T12:31:59;100627.82;;;20.23;63.98
47913;BME280;33676;51.006;17.180;2024-03-08T12:34:33;100631.66;;;20.29;63.83
47913;BME280;33676;51.006;17.180;2024-03-08T12:37:08;100628.14;;;20.37;63.71
47913;BME280;33676;51.006;17.180;2024-03-08T12:39:40;100623.08;;;20.46;63.48
47913;BME280;33676;51.006;17.180;2024-03-08T13:08:44;100596.15;;;21.33;60.70
47913;BME280;33676;51.006;17.180;2024-03-08T13:11:29;100586.41;;;21.68;60.09
47913;BME280;33676;51.006;17.180;2024-03-08T13:14:04;100585.34;;;21.63;59.90
47913;BME280;33676;51.006;17.180;2024-03-08T13:17:00;100585.58;;;21.59;59.48
47913;BME280;33676;51.006;17.180;2024-03-08T13:20:11;100576.61;;;21.53;59.07
47913;BME280;33676;51.006;17.180;2024-03-08T13:22:58;100574.46;;;21.52;58.86
47913;BME280;33676;51.006;17.180;2024-03-08T13:26:21;100574.57;;;21.53;58.65
47913;BME280;33676;51.006;17.180;2024-03-08T13:29:32;100573.82;;;21.64;58.72
47913;BME280;33676;51.006;17.180;2024-03-08T13:32:26;100566.44;;;21.73;58.51
47913;BME280;33676;51.006;17.180;2024-03-08T13:35:03;100563.69;;;21.93;58.67
47913;BME280;33676;51.006;17.180;2024-03-08T13:37:49;100563.34;;;22.13;58.53
47913;BME280;33676;51.006;17.180;2024-03-08T13:40:42;100563.26;;;22.23;57.98
47913;BME280;33676;51.006;17.180;2024-03-08T13:43:25;100561.89;;;22.35;57.78